Urb El Guayabal, Puerto Rico
Current Conditions -  °F | °C
As of 12:50 AM on Saturday 20 Dec 2014 (Local Time) from TJBQ Reporting Station
Clear Clear  
Wind Chill: 72°   Ceiling: Unl
Heat Index: 72°   Visibility: 10mi
Dew Point: 66°   Wind: 8mph
Humidity: 83%   Direction: 110°ESE
Pressure: 30.01"   Gusts: NA
Location:  18.3413°N, 66.991°W
Report Text: TJBQ 200450Z 11007KT 10SM SKC 22/19 A3001 RMK RWY08 ATIS A
Loading
Personal Weather Stations






























Interactive Weather Map New forecast layout! Learn more

10-Day Weather Forecast

Advertisements
Track Severe Weather on mobile